sensor_id;sensor_type;location;lat;lon;timestamp;temperature;humidity
21306;DHT22;10812;51.838;5.838;2022-10-04T00:02:05;12.40;99.90
21306;DHT22;10812;51.838;5.838;2022-10-04T00:04:47;12.40;99.90
21306;DHT22;10812;51.838;5.838;2022-10-04T00:07:21;12.40;99.90
21306;DHT22;10812;51.838;5.838;2022-10-04T00:09:53;12.40;99.90
21306;DHT22;10812;51.838;5.838;2022-10-04T00:12:25;12.30;99.90
21306;DHT22;10812;51.838;5.838;2022-10-04T00:14:56;12.30;99.90
21306;DHT22;10812;51.838;5.838;2022-10-04T00:17:26;12.30;99.90
21306;DHT22;10812;51.838;5.838;2022-10-04T00:19:57;12.30;99.90
21306;DHT22;10812;51.838;5.838;2022-10-04T00:22:27;12.30;99.90
21306;DHT22;10812;51.838;5.838;2022-10-04T00:25:19;12.30;99.90
21306;DHT22;10812;51.838;5.838;2022-10-04T00:31:15;12.20;99.90
21306;DHT22;10812;51.838;5.838;2022-10-04T00:33:45;12.20;99.90
21306;DHT22;10812;51.838;5.838;2022-10-04T00:39:41;12.20;99.90
21306;DHT22;10812;51.838;5.838;2022-10-04T00:42:29;12.20;99.90
21306;DHT22;10812;51.838;5.838;2022-10-04T00:45:01;12.20;99.90
21306;DHT22;10812;51.838;5.838;2022-10-04T00:47:35;12.20;99.90
21306;DHT22;10812;51.838;5.838;2022-10-04T00:50:14;12.20;99.90
21306;DHT22;10812;51.838;5.838;2022-10-04T00:52:46;12.10;99.90
21306;DHT22;10812;51.838;5.838;2022-10-04T00:55:23;12.10;99.90
21306;DHT22;10812;51.838;5.838;2022-10-04T00:57:56;12.10;99.90
21306;DHT22;10812;51.838;5.838;2022-10-04T01:00:28;12.00;99.90
21306;DHT22;10812;51.838;5.838;2022-10-04T01:03:01;12.00;99.90
21306;DHT22;10812;51.838;5.838;2022-10-04T01:05:34;12.00;99.90
21306;DHT22;10812;51.838;5.838;2022-10-04T01:08:06;12.00;99.90
21306;DHT22;10812;51.838;5.838;2022-10-04T01:10:40;11.90;99.90
21306;DHT22;10812;51.838;5.838;2022-10-04T01:13:15;11.90;99.90
21306;DHT22;10812;51.838;5.838;2022-10-04T01:15:49;12.00;99.90
21306;DHT22;10812;51.838;5.838;2022-10-04T01:18:28;11.90;99.90
21306;DHT22;10812;51.838;5.838;2022-10-04T01:20:59;12.00;99.90
21306;DHT22;10812;51.838;5.838;2022-10-04T01:23:51;12.00;99.90
21306;DHT22;10812;51.838;5.838;2022-10-04T01:26:39;12.00;99.90
21306;DHT22;10812;51.838;5.838;2022-10-04T01:29:11;12.00;99.90
21306;DHT22;10812;51.838;5.838;2022-10-04T01:31:41;12.00;99.90
21306;DHT22;10812;51.838;5.838;2022-10-04T01:34:12;12.00;99.90
21306;DHT22;10812;51.838;5.838;2022-10-04T01:36:41;12.00;99.90
21306;DHT22;10812;51.838;5.838;2022-10-04T01:39:12;12.00;99.90
21306;DHT22;10812;51.838;5.838;2022-10-04T01:41:46;12.00;99.90
21306;DHT22;10812;51.838;5.838;2022-10-04T01:44:21;11.90;99.90
21306;DHT22;10812;51.838;5.838;2022-10-04T01:46:51;11.90;99.90
21306;DHT22;10812;51.838;5.838;2022-10-04T01:49:26;11.80;99.90
21306;DHT22;10812;51.838;5.838;2022-10-04T01:52:01;11.80;99.90
21306;DHT22;10812;51.838;5.838;2022-10-04T01:54:34;11.60;99.90
21306;DHT22;10812;51.838;5.838;2022-10-04T01:57:11;11.70;99.90
21306;DHT22;10812;51.838;5.838;2022-10-04T01:59:45;11.60;99.90
21306;DHT22;10812;51.838;5.838;2022-10-04T02:02:22;11.60;99.90
21306;DHT22;10812;51.838;5.838;2022-10-04T02:04:52;11.60;99.90
21306;DHT22;10812;51.838;5.838;2022-10-04T02:07:23;11.50;99.90
21306;DHT22;10812;51.838;5.838;2022-10-04T02:09:56;11.40;99.90
21306;DHT22;10812;51.838;5.838;2022-10-04T02:12:26;11.40;99.90
21306;DHT22;10812;51.838;5.838;2022-10-04T02:14:59;11.40;99.90
21306;DHT22;10812;51.838;5.838;2022-10-04T02:17:29;11.40;99.90
21306;DHT22;10812;51.838;5.838;2022-10-04T02:19:59;11.30;99.90
21306;DHT22;10812;51.838;5.838;2022-10-04T02:22:28;11.30;99.90
21306;DHT22;10812;51.838;5.838;2022-10-04T02:24:58;11.30;99.90
21306;DHT22;10812;51.838;5.838;2022-10-04T02:27:27;11.20;99.90
21306;DHT22;10812;51.838;5.838;2022-10-04T02:30:01;11.20;99.90
21306;DHT22;10812;51.838;5.838;2022-10-04T02:32:30;11.20;99.90
21306;DHT22;10812;51.838;5.838;2022-10-04T02:35:17;11.20;99.90
21306;DHT22;10812;51.838;5.838;2022-10-04T02:37:48;11.20;99.90
21306;DHT22;10812;51.838;5.838;2022-10-04T02:40:22;11.20;99.90
21306;DHT22;10812;51.838;5.838;2022-10-04T02:42:59;11.20;99.90
21306;DHT22;10812;51.838;5.838;2022-10-04T02:45:38;11.30;99.90
21306;DHT22;10812;51.838;5.838;2022-10-04T02:48:20;11.20;99.90
21306;DHT22;10812;51.838;5.838;2022-10-04T02:50:54;11.20;99.90
21306;DHT22;10812;51.838;5.838;2022-10-04T02:53:28;11.20;99.90
21306;DHT22;10812;51.838;5.838;2022-10-04T02:56:01;11.10;99.90
21306;DHT22;10812;51.838;5.838;2022-10-04T02:58:30;11.10;99.90
21306;DHT22;10812;51.838;5.838;2022-10-04T03:06:21;10.90;99.90
21306;DHT22;10812;51.838;5.838;2022-10-04T03:08:52;10.90;99.90
21306;DHT22;10812;51.838;5.838;2022-10-04T03:11:26;10.80;99.90
21306;DHT22;10812;51.838;5.838;2022-10-04T03:13:58;10.80;99.90
21306;DHT22;10812;51.838;5.838;2022-10-04T03:16:33;10.80;99.90
21306;DHT22;10812;51.838;5.838;2022-10-04T03:19:03;10.70;99.90
21306;DHT22;10812;51.838;5.838;2022-10-04T03:21:33;10.70;99.90
21306;DHT22;10812;51.838;5.838;2022-10-04T03:24:03;10.60;99.90
21306;DHT22;10812;51.838;5.838;2022-10-04T03:26:37;10.50;99.90
21306;DHT22;10812;51.838;5.838;2022-10-04T03:29:08;10.50;99.90
21306;DHT22;10812;51.838;5.838;2022-10-04T03:31:39;10.50;99.90
21306;DHT22;10812;51.838;5.838;2022-10-04T03:34:13;10.40;99.90
21306;DHT22;10812;51.838;5.838;2022-10-04T03:36:43;10.50;99.90
21306;DHT22;10812;51.838;5.838;2022-10-04T03:39:18;10.40;99.90
21306;DHT22;10812;51.838;5.838;2022-10-04T03:41:49;10.40;99.90
21306;DHT22;10812;51.838;5.838;2022-10-04T03:44:18;10.40;99.90
21306;DHT22;10812;51.838;5.838;2022-10-04T03:46:47;10.40;99.90
21306;DHT22;10812;51.838;5.838;2022-10-04T03:49:22;10.40;99.90
21306;DHT22;10812;51.838;5.838;2022-10-04T03:51:52;10.30;99.90
21306;DHT22;10812;51.838;5.838;2022-10-04T03:54:22;10.30;99.90
21306;DHT22;10812;51.838;5.838;2022-10-04T03:56:56;10.30;99.90
21306;DHT22;10812;51.838;5.838;2022-10-04T03:59:26;10.30;99.90
21306;DHT22;10812;51.838;5.838;2022-10-04T04:02:02;10.20;99.90
21306;DHT22;10812;51.838;5.838;2022-10-04T04:04:42;10.30;99.90
21306;DHT22;10812;51.838;5.838;2022-10-04T04:07:15;10.30;99.90
21306;DHT22;10812;51.838;5.838;2022-10-04T04:09:49;10.30;99.90
21306;DHT22;10812;51.838;5.838;2022-10-04T04:12:23;10.20;99.90
21306;DHT22;10812;51.838;5.838;2022-10-04T04:14:53;10.20;99.90
21306;DHT22;10812;51.838;5.838;2022-10-04T04:17:35;10.20;99.90
21306;DHT22;10812;51.838;5.838;2022-10-04T04:20:19;10.10;99.90
21306;DHT22;10812;51.838;5.838;2022-10-04T04:23:00;10.00;99.90
21306;DHT22;10812;51.838;5.838;2022-10-04T04:25:32;9.90;99.90
21306;DHT22;10812;51.838;5.838;2022-10-04T04:28:10;10.00;99.90
21306;DHT22;10812;51.838;5.838;2022-10-04T04:30:45;10.00;99.90
21306;DHT22;10812;51.838;5.838;2022-10-04T04:33:31;9.90;99.90
21306;DHT22;10812;51.838;5.838;2022-10-04T04:36:05;9.90;99.90
21306;DHT22;10812;51.838;5.838;2022-10-04T04:38:34;9.90;99.90
21306;DHT22;10812;51.838;5.838;2022-10-04T04:41:23;9.90;99.90
21306;DHT22;10812;51.838;5.838;2022-10-04T04:43:53;9.90;99.90
21306;DHT22;10812;51.838;5.838;2022-10-04T04:46:21;9.80;99.90
21306;DHT22;10812;51.838;5.838;2022-10-04T04:48:57;9.90;99.90
21306;DHT22;10812;51.838;5.838;2022-10-04T04:51:28;9.80;99.90
21306;DHT22;10812;51.838;5.838;2022-10-04T04:53:59;9.80;99.90
21306;DHT22;10812;51.838;5.838;2022-10-04T04:56:30;9.70;99.90
21306;DHT22;10812;51.838;5.838;2022-10-04T04:59:01;9.70;99.90
21306;DHT22;10812;51.838;5.838;2022-10-04T05:01:33;9.70;99.90
21306;DHT22;10812;51.838;5.838;2022-10-04T05:04:04;9.70;99.90
21306;DHT22;10812;51.838;5.838;2022-10-04T05:06:34;9.70;99.90
21306;DHT22;10812;51.838;5.838;2022-10-04T05:09:04;9.70;99.90
21306;DHT22;10812;51.838;5.838;2022-10-04T05:11:35;9.60;99.90
21306;DHT22;10812;51.838;5.838;2022-10-04T05:14:08;9.50;99.90
21306;DHT22;10812;51.838;5.838;2022-10-04T05:16:40;9.60;99.90
21306;DHT22;10812;51.838;5.838;2022-10-04T05:19:14;9.60;99.90
21306;DHT22;10812;51.838;5.838;2022-10-04T05:21:44;9.60;99.90
21306;DHT22;10812;51.838;5.838;2022-10-04T05:24:21;9.50;99.90
21306;DHT22;10812;51.838;5.838;2022-10-04T05:26:52;9.50;99.90
21306;DHT22;10812;51.838;5.838;2022-10-04T05:29:26;9.50;99.90
21306;DHT22;10812;51.838;5.838;2022-10-04T05:32:01;9.50;99.90
21306;DHT22;10812;51.838;5.838;2022-10-04T05:34:38;9.50;99.90
21306;DHT22;10812;51.838;5.838;2022-10-04T05:37:22;9.50;99.90
21306;DHT22;10812;51.838;5.838;2022-10-04T05:40:19;9.40;99.90
21306;DHT22;10812;51.838;5.838;2022-10-04T05:42:50;9.50;99.90
21306;DHT22;10812;51.838;5.838;2022-10-04T05:45:25;9.40;99.90
21306;DHT22;10812;51.838;5.838;2022-10-04T05:47:55;9.40;99.90
21306;DHT22;10812;51.838;5.838;2022-10-04T05:50:29;9.40;99.90
21306;DHT22;10812;51.838;5.838;2022-10-04T05:53:14;9.40;99.90
21306;DHT22;10812;51.838;5.838;2022-10-04T05:55:48;9.40;99.90
21306;DHT22;10812;51.838;5.838;2022-10-04T05:58:36;9.40;99.90
21306;DHT22;10812;51.838;5.838;2022-10-04T06:01:19;9.40;99.90
21306;DHT22;10812;51.838;5.838;2022-10-04T06:06:58;9.50;99.90
21306;DHT22;10812;51.838;5.838;2022-10-04T06:09:45;9.50;99.90
21306;DHT22;10812;51.838;5.838;2022-10-04T06:12:22;9.60;99.90
21306;DHT22;10812;51.838;5.838;2022-10-04T06:15:19;9.50;99.90
21306;DHT22;10812;51.838;5.838;2022-10-04T06:18:01;9.60;99.90
21306;DHT22;10812;51.838;5.838;2022-10-04T06:20:46;9.70;99.90
21306;DHT22;10812;51.838;5.838;2022-10-04T06:23:18;9.70;99.90
21306;DHT22;10812;51.838;5.838;2022-10-04T06:25:49;9.70;99.90
21306;DHT22;10812;51.838;5.838;2022-10-04T06:28:20;9.80;99.90
21306;DHT22;10812;51.838;5.838;2022-10-04T06:31:16;9.80;99.90
21306;DHT22;10812;51.838;5.838;2022-10-04T06:34:08;9.80;99.90
21306;DHT22;10812;51.838;5.838;2022-10-04T06:36:57;9.90;99.90
21306;DHT22;10812;51.838;5.838;2022-10-04T06:42:46;10.00;99.90
21306;DHT22;10812;51.838;5.838;2022-10-04T06:45:29;10.00;99.90
21306;DHT22;10812;51.838;5.838;2022-10-04T06:48:20;10.10;99.90
21306;DHT22;10812;51.838;5.838;2022-10-04T06:50:58;10.20;99.90
21306;DHT22;10812;51.838;5.838;2022-10-04T06:53:38;10.30;99.90
21306;DHT22;10812;51.838;5.838;2022-10-04T06:56:24;10.30;99.90
21306;DHT22;10812;51.838;5.838;2022-10-04T06:59:21;10.50;99.90
21306;DHT22;10812;51.838;5.838;2022-10-04T07:01:57;10.70;99.90
21306;DHT22;10812;51.838;5.838;2022-10-04T07:04:34;10.90;99.90
21306;DHT22;10812;51.838;5.838;2022-10-04T07:11:49;11.60;99.90
21306;DHT22;10812;51.838;5.838;2022-10-04T07:14:26;12.90;99.90
21306;DHT22;10812;51.838;5.838;2022-10-04T07:17:00;13.60;99.90
21306;DHT22;10812;51.838;5.838;2022-10-04T07:19:33;14.30;99.90
21306;DHT22;10812;51.838;5.838;2022-10-04T07:22:12;14.90;99.90
21306;DHT22;10812;51.838;5.838;2022-10-04T07:24:48;15.80;99.90
21306;DHT22;10812;51.838;5.838;2022-10-04T07:27:23;16.90;99.90
21306;DHT22;10812;51.838;5.838;2022-10-04T07:29:57;18.40;99.90
21306;DHT22;10812;51.838;5.838;2022-10-04T07:32:27;19.30;99.90
21306;DHT22;10812;51.838;5.838;2022-10-04T07:35:00;20.00;99.90
21306;DHT22;10812;51.838;5.838;2022-10-04T07:37:33;19.90;99.90
21306;DHT22;10812;51.838;5.838;2022-10-04T07:40:06;19.50;99.90
21306;DHT22;10812;51.838;5.838;2022-10-04T07:42:47;19.00;99.90
21306;DHT22;10812;51.838;5.838;2022-10-04T07:45:23;19.00;99.90
21306;DHT22;10812;51.838;5.838;2022-10-04T07:48:03;18.90;99.90
21306;DHT22;10812;51.838;5.838;2022-10-04T07:50:36;18.80;99.90
21306;DHT22;10812;51.838;5.838;2022-10-04T07:53:08;18.10;99.90
21306;DHT22;10812;51.838;5.838;2022-10-04T07:55:45;17.40;99.90
21306;DHT22;10812;51.838;5.838;2022-10-04T07:58:25;16.70;99.90
21306;DHT22;10812;51.838;5.838;2022-10-04T08:00:58;16.50;99.90
21306;DHT22;10812;51.838;5.838;2022-10-04T08:03:43;17.20;99.90
21306;DHT22;10812;51.838;5.838;2022-10-04T08:06:19;18.50;99.90
21306;DHT22;10812;51.838;5.838;2022-10-04T08:09:16;19.30;99.90
21306;DHT22;10812;51.838;5.838;2022-10-04T08:11:53;20.00;99.90
21306;DHT22;10812;51.838;5.838;2022-10-04T08:14:38;20.50;99.90
21306;DHT22;10812;51.838;5.838;2022-10-04T08:17:16;20.60;99.90
21306;DHT22;10812;51.838;5.838;2022-10-04T08:19:56;20.80;99.90
21306;DHT22;10812;51.838;5.838;2022-10-04T08:22:33;20.70;99.90
21306;DHT22;10812;51.838;5.838;2022-10-04T08:25:12;21.00;99.90
21306;DHT22;10812;51.838;5.838;2022-10-04T08:27:51;21.00;99.90
21306;DHT22;10812;51.838;5.838;2022-10-04T08:33:45;21.20;99.90
21306;DHT22;10812;51.838;5.838;2022-10-04T08:36:23;21.40;99.90
21306;DHT22;10812;51.838;5.838;2022-10-04T08:38:56;21.90;99.90
21306;DHT22;10812;51.838;5.838;2022-10-04T08:41:58;22.30;99.90
21306;DHT22;10812;51.838;5.838;2022-10-04T08:44:59;21.80;99.90
21306;DHT22;10812;51.838;5.838;2022-10-04T08:48:14;22.40;99.90
21306;DHT22;10812;51.838;5.838;2022-10-04T08:54:10;22.50;99.90
21306;DHT22;10812;51.838;5.838;2022-10-04T08:56:57;22.30;99.90
21306;DHT22;10812;51.838;5.838;2022-10-04T09:00:02;22.10;99.90
21306;DHT22;10812;51.838;5.838;2022-10-04T09:02:58;22.10;99.90
21306;DHT22;10812;51.838;5.838;2022-10-04T09:05:42;22.20;99.90
21306;DHT22;10812;51.838;5.838;2022-10-04T09:11:48;22.50;99.90
21306;DHT22;10812;51.838;5.838;2022-10-04T09:14:58;22.50;99.90
21306;DHT22;10812;51.838;5.838;2022-10-04T09:17:38;22.30;99.90
21306;DHT22;10812;51.838;5.838;2022-10-04T09:20:23;22.20;99.90
21306;DHT22;10812;51.838;5.838;2022-10-04T09:23:18;22.10;99.90
21306;DHT22;10812;51.838;5.838;2022-10-04T09:26:12;21.80;99.90
21306;DHT22;10812;51.838;5.838;2022-10-04T09:29:19;22.00;99.90
21306;DHT22;10812;51.838;5.838;2022-10-04T09:35:09;22.00;99.90
21306;DHT22;10812;51.838;5.838;2022-10-04T09:37:49;22.00;99.90
21306;DHT22;10812;51.838;5.838;2022-10-04T09:40:56;21.90;99.90
21306;DHT22;10812;51.838;5.838;2022-10-04T09:43:54;21.50;99.90
21306;DHT22;10812;51.838;5.838;2022-10-04T09:46:50;21.20;99.90
21306;DHT22;10812;51.838;5.838;2022-10-04T09:49:39;21.50;99.90
21306;DHT22;10812;51.838;5.838;2022-10-04T09:52:27;21.30;99.90
21306;DHT22;10812;51.838;5.838;2022-10-04T09:57:59;21.60;99.90
21306;DHT22;10812;51.838;5.838;2022-10-04T10:00:34;21.10;99.90
21306;DHT22;10812;51.838;5.838;2022-10-04T10:04:00;20.30;99.90
21306;DHT22;10812;51.838;5.838;2022-10-04T10:06:59;19.40;99.90
21306;DHT22;10812;51.838;5.838;2022-10-04T10:09:39;18.80;99.90
21306;DHT22;10812;51.838;5.838;2022-10-04T10:12:39;18.50;99.90
21306;DHT22;10812;51.838;5.838;2022-10-04T10:15:34;18.10;99.90
21306;DHT22;10812;51.838;5.838;2022-10-04T10:18:14;18.00;99.90
21306;DHT22;10812;51.838;5.838;2022-10-04T10:21:09;18.00;99.90
21306;DHT22;10812;51.838;5.838;2022-10-04T10:23:55;17.90;99.90
21306;DHT22;10812;51.838;5.838;2022-10-04T10:26:41;17.70;99.90
21306;DHT22;10812;51.838;5.838;2022-10-04T10:35:32;17.70;99.90
21306;DHT22;10812;51.838;5.838;2022-10-04T10:38:30;17.90;99.90
21306;DHT22;10812;51.838;5.838;2022-10-04T10:41:34;17.90;99.90
21306;DHT22;10812;51.838;5.838;2022-10-04T10:44:26;17.90;99.90
21306;DHT22;10812;51.838;5.838;2022-10-04T10:47:06;17.90;99.90
21306;DHT22;10812;51.838;5.838;2022-10-04T10:50:00;17.90;99.90
21306;DHT22;10812;51.838;5.838;2022-10-04T11:02:04;17.60;99.90
21306;DHT22;10812;51.838;5.838;2022-10-04T11:04:54;17.60;99.90
21306;DHT22;10812;51.838;5.838;2022-10-04T11:07:40;17.60;99.90
21306;DHT22;10812;51.838;5.838;2022-10-04T11:10:40;17.70;99.90
21306;DHT22;10812;51.838;5.838;2022-10-04T11:16:55;17.80;99.90
21306;DHT22;10812;51.838;5.838;2022-10-04T11:26:20;17.90;99.90
21306;DHT22;10812;51.838;5.838;2022-10-04T11:29:01;17.90;99.90
21306;DHT22;10812;51.838;5.838;2022-10-04T11:32:01;17.80;99.90
21306;DHT22;10812;51.838;5.838;2022-10-04T11:35:25;17.80;99.90
21306;DHT22;10812;51.838;5.838;2022-10-04T11:38:09;17.80;99.90
21306;DHT22;10812;51.838;5.838;2022-10-04T11:41:08;17.90;99.90
21306;DHT22;10812;51.838;5.838;2022-10-04T11:46:46;17.90;99.90
21306;DHT22;10812;51.838;5.838;2022-10-04T11:49:33;17.90;99.90
21306;DHT22;10812;51.838;5.838;2022-10-04T11:52:37;18.00;99.90
21306;DHT22;10812;51.838;5.838;2022-10-04T12:10:02;18.10;99.90
21306;DHT22;10812;51.838;5.838;2022-10-04T12:15:50;18.20;99.90
21306;DHT22;10812;51.838;5.838;2022-10-04T12:18:40;18.30;99.90
21306;DHT22;10812;51.838;5.838;2022-10-04T12:21:32;18.40;99.90
21306;DHT22;10812;51.838;5.838;2022-10-04T12:24:38;18.30;99.90
21306;DHT22;10812;51.838;5.838;2022-10-04T12:27:37;18.40;99.90
21306;DHT22;10812;51.838;5.838;2022-10-04T12:30:22;18.40;99.90
21306;DHT22;10812;51.838;5.838;2022-10-04T12:32:59;18.30;99.90
21306;DHT22;10812;51.838;5.838;2022-10-04T12:35:35;18.30;99.90
21306;DHT22;10812;51.838;5.838;2022-10-04T12:38:19;18.20;99.90
21306;DHT22;10812;51.838;5.838;2022-10-04T12:40:53;18.40;99.90
21306;DHT22;10812;51.838;5.838;2022-10-04T12:43:30;18.60;99.90
21306;DHT22;10812;51.838;5.838;2022-10-04T12:46:15;18.80;99.90
21306;DHT22;10812;51.838;5.838;2022-10-04T12:48:55;18.90;99.90
21306;DHT22;10812;51.838;5.838;2022-10-04T12:51:48;18.90;99.90
21306;DHT22;10812;51.838;5.838;2022-10-04T12:54:31;18.90;99.90
21306;DHT22;10812;51.838;5.838;2022-10-04T12:57:16;18.90;99.90
21306;DHT22;10812;51.838;5.838;2022-10-04T12:59:56;18.80;99.90
21306;DHT22;10812;51.838;5.838;2022-10-04T13:02:39;19.00;99.90
21306;DHT22;10812;51.838;5.838;2022-10-04T13:05:18;19.00;99.90
21306;DHT22;10812;51.838;5.838;2022-10-04T13:08:01;18.80;99.90
21306;DHT22;10812;51.838;5.838;2022-10-04T13:10:44;18.90;99.90
21306;DHT22;10812;51.838;5.838;2022-10-04T13:16:28;18.80;99.90
21306;DHT22;10812;51.838;5.838;2022-10-04T13:19:28;18.70;99.90
21306;DHT22;10812;51.838;5.838;2022-10-04T13:22:18;18.70;99.90
21306;DHT22;10812;51.838;5.838;2022-10-04T13:25:22;18.70;99.90
21306;DHT22;10812;51.838;5.838;2022-10-04T13:27:59;18.70;99.90
21306;DHT22;10812;51.838;5.838;2022-10-04T13:30:34;18.80;99.90
21306;DHT22;10812;51.838;5.838;2022-10-04T13:33:20;18.80;99.90
21306;DHT22;10812;51.838;5.838;2022-10-04T13:35:58;18.80;99.90
21306;DHT22;10812;51.838;5.838;2022-10-04T13:38:44;18.80;99.90
21306;DHT22;10812;51.838;5.838;2022-10-04T13:41:27;18.70;99.90
21306;DHT22;10812;51.838;5.838;2022-10-04T13:44:32;18.60;99.90
21306;DHT22;10812;51.838;5.838;2022-10-04T13:47:18;18.60;99.90
21306;DHT22;10812;51.838;5.838;2022-10-04T13:50:06;18.60;99.90
21306;DHT22;10812;51.838;5.838;2022-10-04T13:52:44;18.60;99.90
21306;DHT22;10812;51.838;5.838;2022-10-04T13:55:37;18.60;99.90
21306;DHT22;10812;51.838;5.838;2022-10-04T13:58:32;18.70;99.90
21306;DHT22;10812;51.838;5.838;2022-10-04T14:01:24;18.70;99.90
21306;DHT22;10812;51.838;5.838;2022-10-04T14:04:09;18.80;99.90
21306;DHT22;10812;51.838;5.838;2022-10-04T14:07:22;18.80;99.90
21306;DHT22;10812;51.838;5.838;2022-10-04T14:10:02;18.70;99.90
21306;DHT22;10812;51.838;5.838;2022-10-04T14:19:32;18.70;99.90
21306;DHT22;10812;51.838;5.838;2022-10-04T14:22:35;18.70;99.90
21306;DHT22;10812;51.838;5.838;2022-10-04T14:34:54;18.60;99.90
21306;DHT22;10812;51.838;5.838;2022-10-04T14:46:38;18.60;99.90
21306;DHT22;10812;51.838;5.838;2022-10-04T14:49:15;18.60;99.90
21306;DHT22;10812;51.838;5.838;2022-10-04T14:51:59;18.60;99.90
21306;DHT22;10812;51.838;5.838;2022-10-04T14:54:41;18.60;99.90
21306;DHT22;10812;51.838;5.838;2022-10-04T14:57:16;18.60;99.90
21306;DHT22;10812;51.838;5.838;2022-10-04T15:00:07;18.60;99.90
21306;DHT22;10812;51.838;5.838;2022-10-04T15:02:53;18.60;99.90
21306;DHT22;10812;51.838;5.838;2022-10-04T15:08:44;18.70;99.90
21306;DHT22;10812;51.838;5.838;2022-10-04T15:11:17;18.70;99.90
21306;DHT22;10812;51.838;5.838;2022-10-04T15:13:51;18.70;99.90
21306;DHT22;10812;51.838;5.838;2022-10-04T15:16:32;18.70;99.90
21306;DHT22;10812;51.838;5.838;2022-10-04T15:19:08;18.70;99.90
21306;DHT22;10812;51.838;5.838;2022-10-04T15:21:43;18.70;99.90
21306;DHT22;10812;51.838;5.838;2022-10-04T15:24:26;18.70;99.90
21306;DHT22;10812;51.838;5.838;2022-10-04T15:27:21;18.70;99.90
21306;DHT22;10812;51.838;5.838;2022-10-04T15:30:00;18.70;99.90
21306;DHT22;10812;51.838;5.838;2022-10-04T15:32:33;18.60;99.90
21306;DHT22;10812;51.838;5.838;2022-10-04T15:35:18;18.60;99.90
21306;DHT22;10812;51.838;5.838;2022-10-04T15:37:52;18.60;99.90
21306;DHT22;10812;51.838;5.838;2022-10-04T15:40:35;18.60;99.90
21306;DHT22;10812;51.838;5.838;2022-10-04T15:43:18;18.50;99.90
21306;DHT22;10812;51.838;5.838;2022-10-04T15:46:10;18.50;99.90
21306;DHT22;10812;51.838;5.838;2022-10-04T15:49:03;18.40;99.90
21306;DHT22;10812;51.838;5.838;2022-10-04T15:51:48;18.30;99.90
21306;DHT22;10812;51.838;5.838;2022-10-04T15:54:43;18.20;99.90
21306;DHT22;10812;51.838;5.838;2022-10-04T15:57:26;18.10;99.90
21306;DHT22;10812;51.838;5.838;2022-10-04T16:00:04;18.00;99.90
21306;DHT22;10812;51.838;5.838;2022-10-04T16:02:45;17.90;99.90
21306;DHT22;10812;51.838;5.838;2022-10-04T16:05:28;17.80;99.90
21306;DHT22;10812;51.838;5.838;2022-10-04T16:08:23;17.70;99.90
21306;DHT22;10812;51.838;5.838;2022-10-04T16:11:34;17.60;99.90
21306;DHT22;10812;51.838;5.838;2022-10-04T16:14:22;17.50;99.90
21306;DHT22;10812;51.838;5.838;2022-10-04T16:20:02;17.30;99.90
21306;DHT22;10812;51.838;5.838;2022-10-04T16:22:34;17.20;99.90
21306;DHT22;10812;51.838;5.838;2022-10-04T16:25:29;17.10;99.90
21306;DHT22;10812;51.838;5.838;2022-10-04T16:28:07;17.00;99.90
21306;DHT22;10812;51.838;5.838;2022-10-04T16:30:45;17.00;99.90
21306;DHT22;10812;51.838;5.838;2022-10-04T16:33:29;16.90;99.90
21306;DHT22;10812;51.838;5.838;2022-10-04T16:36:06;16.90;99.90
21306;DHT22;10812;51.838;5.838;2022-10-04T16:38:43;16.80;99.90
21306;DHT22;10812;51.838;5.838;2022-10-04T16:41:38;16.80;99.90
21306;DHT22;10812;51.838;5.838;2022-10-04T16:44:27;16.70;99.90
21306;DHT22;10812;51.838;5.838;2022-10-04T17:02:32;16.10;99.90
21306;DHT22;10812;51.838;5.838;2022-10-04T17:05:30;16.00;99.90
21306;DHT22;10812;51.838;5.838;2022-10-04T17:08:15;15.90;99.90
21306;DHT22;10812;51.838;5.838;2022-10-04T17:11:06;15.80;99.90
21306;DHT22;10812;51.838;5.838;2022-10-04T17:13:46;15.80;99.90
21306;DHT22;10812;51.838;5.838;2022-10-04T17:16:29;15.70;99.90
21306;DHT22;10812;51.838;5.838;2022-10-04T17:19:24;15.60;99.90
21306;DHT22;10812;51.838;5.838;2022-10-04T17:22:06;15.60;99.90
21306;DHT22;10812;51.838;5.838;2022-10-04T17:24:55;15.60;99.90
21306;DHT22;10812;51.838;5.838;2022-10-04T17:27:43;15.50;99.90
21306;DHT22;10812;51.838;5.838;2022-10-04T17:30:16;15.50;99.90
21306;DHT22;10812;51.838;5.838;2022-10-04T17:33:19;15.40;99.90
21306;DHT22;10812;51.838;5.838;2022-10-04T17:36:09;15.40;99.90
21306;DHT22;10812;51.838;5.838;2022-10-04T17:38:48;15.40;99.90
21306;DHT22;10812;51.838;5.838;2022-10-04T17:41:26;15.30;99.90
21306;DHT22;10812;51.838;5.838;2022-10-04T17:46:57;15.40;99.90
21306;DHT22;10812;51.838;5.838;2022-10-04T18:00:59;15.50;99.90
21306;DHT22;10812;51.838;5.838;2022-10-04T18:03:37;15.40;99.90
21306;DHT22;10812;51.838;5.838;2022-10-04T18:06:16;15.40;99.90
21306;DHT22;10812;51.838;5.838;2022-10-04T18:08:52;15.30;99.90
21306;DHT22;10812;51.838;5.838;2022-10-04T18:11:29;15.20;99.90
21306;DHT22;10812;51.838;5.838;2022-10-04T18:14:03;15.20;99.90
21306;DHT22;10812;51.838;5.838;2022-10-04T18:16:45;15.20;99.90
21306;DHT22;10812;51.838;5.838;2022-10-04T18:19:36;15.20;99.90
21306;DHT22;10812;51.838;5.838;2022-10-04T18:22:12;15.10;99.90
21306;DHT22;10812;51.838;5.838;2022-10-04T18:24:42;15.10;99.90
21306;DHT22;10812;51.838;5.838;2022-10-04T18:27:17;15.00;99.90
21306;DHT22;10812;51.838;5.838;2022-10-04T18:30:06;15.00;99.90
21306;DHT22;10812;51.838;5.838;2022-10-04T18:32:42;15.00;99.90
21306;DHT22;10812;51.838;5.838;2022-10-04T18:35:21;15.10;99.90
21306;DHT22;10812;51.838;5.838;2022-10-04T18:37:54;15.00;99.90
21306;DHT22;10812;51.838;5.838;2022-10-04T18:40:24;15.00;99.90
21306;DHT22;10812;51.838;5.838;2022-10-04T18:42:55;14.90;99.90
21306;DHT22;10812;51.838;5.838;2022-10-04T18:45:25;14.90;99.90
21306;DHT22;10812;51.838;5.838;2022-10-04T18:47:56;14.80;99.90
21306;DHT22;10812;51.838;5.838;2022-10-04T18:50:34;14.80;99.90
21306;DHT22;10812;51.838;5.838;2022-10-04T18:53:37;14.70;99.90
21306;DHT22;10812;51.838;5.838;2022-10-04T18:56:08;14.70;99.90
21306;DHT22;10812;51.838;5.838;2022-10-04T18:58:48;14.70;99.90
21306;DHT22;10812;51.838;5.838;2022-10-04T19:01:48;14.70;99.90
21306;DHT22;10812;51.838;5.838;2022-10-04T19:04:54;14.70;99.90
21306;DHT22;10812;51.838;5.838;2022-10-04T19:07:33;14.60;99.90
21306;DHT22;10812;51.838;5.838;2022-10-04T19:10:20;14.60;99.90
21306;DHT22;10812;51.838;5.838;2022-10-04T19:13:13;14.60;99.90
21306;DHT22;10812;51.838;5.838;2022-10-04T19:16:05;14.70;99.90
21306;DHT22;10812;51.838;5.838;2022-10-04T19:18:57;14.90;99.90
21306;DHT22;10812;51.838;5.838;2022-10-04T19:21:38;15.00;99.90
21306;DHT22;10812;51.838;5.838;2022-10-04T19:24:20;15.00;99.90
21306;DHT22;10812;51.838;5.838;2022-10-04T19:26:58;15.10;99.90
21306;DHT22;10812;51.838;5.838;2022-10-04T19:29:39;15.10;99.90